createdAt,value
2022-09-06T00:01:14.994Z,2.87
2022-09-06T00:03:42.690Z,2.53
2022-09-06T00:06:14.493Z,2.80
2022-09-06T00:08:41.430Z,2.60
2022-09-06T00:11:08.514Z,2.50
2022-09-06T00:13:35.486Z,2.77
2022-09-06T00:16:10.226Z,2.67
2022-09-06T00:18:37.023Z,3.07
2022-09-06T00:21:12.852Z,2.27
2022-09-06T00:23:39.406Z,3.30
2022-09-06T00:26:06.028Z,2.70
2022-09-06T00:28:32.594Z,2.70
2022-09-06T00:30:59.323Z,3.10
2022-09-06T00:33:26.039Z,2.80
2022-09-06T00:35:59.524Z,3.20
2022-09-06T00:38:26.207Z,2.90
2022-09-06T00:40:52.853Z,2.67
2022-09-06T00:43:19.424Z,2.80
2022-09-06T00:45:46.000Z,2.70
2022-09-06T00:48:12.658Z,2.90
2022-09-06T00:50:39.232Z,3.13
2022-09-06T00:53:05.837Z,2.73
2022-09-06T00:55:32.635Z,2.57
2022-09-06T00:57:59.202Z,2.67
2022-09-06T01:00:25.798Z,3.00
2022-09-06T01:02:53.962Z,3.33
2022-09-06T01:05:24.957Z,3.30
2022-09-06T01:08:32.660Z,2.97
2022-09-06T01:11:08.455Z,2.80
2022-09-06T01:13:53.219Z,2.90
2022-09-06T01:16:38.692Z,2.77
2022-09-06T01:19:22.154Z,3.30
2022-09-06T01:22:33.066Z,2.83
2022-09-06T01:25:34.541Z,3.03
2022-09-06T01:28:21.697Z,3.27
2022-09-06T01:30:56.988Z,3.13
2022-09-06T01:33:41.809Z,2.77
2022-09-06T01:36:13.423Z,2.87
2022-09-06T01:38:40.079Z,3.63
2022-09-06T01:41:06.717Z,3.10
2022-09-06T01:43:36.652Z,3.00
2022-09-06T01:46:07.685Z,3.07
2022-09-06T01:48:53.400Z,3.43
2022-09-06T01:51:25.538Z,3.03
2022-09-06T01:54:04.593Z,2.57
2022-09-06T01:57:09.391Z,3.20
2022-09-06T01:59:53.817Z,2.90
2022-09-06T02:02:39.081Z,2.57
2022-09-06T02:05:34.777Z,2.93
2022-09-06T02:08:17.301Z,3.00
2022-09-06T02:10:51.150Z,3.17
2022-09-06T02:13:19.745Z,3.67
2022-09-06T02:16:13.777Z,3.27
2022-09-06T02:18:47.908Z,2.93
2022-09-06T02:21:16.705Z,3.10
2022-09-06T02:23:44.765Z,2.80
2022-09-06T02:26:16.818Z,2.70
2022-09-06T02:28:43.617Z,3.30
2022-09-06T02:31:19.687Z,3.00
2022-09-06T02:33:47.473Z,3.50
2022-09-06T02:36:15.780Z,2.80
2022-09-06T02:38:43.976Z,3.20
2022-09-06T02:41:11.657Z,2.87
2022-09-06T02:43:38.613Z,3.00
2022-09-06T02:46:05.310Z,3.53
2022-09-06T02:48:31.948Z,2.93
2022-09-06T02:51:02.825Z,2.60
2022-09-06T02:53:29.432Z,3.50
2022-09-06T02:55:56.852Z,2.73
2022-09-06T02:58:24.355Z,3.60
2022-09-06T03:00:54.459Z,2.63
2022-09-06T03:03:21.888Z,3.63
2022-09-06T03:05:50.645Z,3.63
2022-09-06T03:08:18.524Z,3.10
2022-09-06T03:10:56.034Z,3.03
2022-09-06T03:13:24.157Z,3.30
2022-09-06T03:15:52.212Z,2.93
2022-09-06T03:18:18.882Z,2.67
2022-09-06T03:20:45.596Z,2.70
2022-09-06T03:23:12.240Z,3.10
2022-09-06T03:25:38.790Z,3.13
2022-09-06T03:28:05.348Z,2.77
2022-09-06T03:30:31.960Z,2.73
2022-09-06T03:33:02.635Z,3.17
2022-09-06T03:35:29.712Z,3.20
2022-09-06T03:37:56.339Z,3.43
2022-09-06T03:40:23.438Z,3.33
2022-09-06T03:42:50.081Z,3.33
2022-09-06T03:45:16.781Z,3.37
2022-09-06T03:47:43.381Z,3.50
2022-09-06T03:50:10.160Z,3.93
2022-09-06T03:52:36.873Z,3.40
2022-09-06T03:55:04.541Z,3.40
2022-09-06T03:57:31.900Z,3.37
2022-09-06T03:59:58.556Z,3.10
2022-09-06T04:02:25.180Z,4.17
2022-09-06T04:04:55.355Z,3.30
2022-09-06T04:07:22.985Z,3.27
2022-09-06T04:09:49.585Z,2.90
2022-09-06T04:12:16.225Z,3.10
2022-09-06T04:14:42.796Z,3.40
2022-09-06T04:17:09.548Z,3.20
2022-09-06T04:19:36.100Z,3.47
2022-09-06T04:22:03.263Z,3.73
2022-09-06T04:24:29.814Z,3.50
2022-09-06T04:26:56.393Z,3.00
2022-09-06T04:29:23.267Z,3.10
2022-09-06T04:31:49.837Z,3.50
2022-09-06T04:34:16.540Z,3.67
2022-09-06T04:36:48.057Z,3.80
2022-09-06T04:39:14.935Z,3.40
2022-09-06T04:41:42.501Z,3.60
2022-09-06T04:44:09.210Z,3.60
2022-09-06T04:46:35.875Z,3.37
2022-09-06T04:49:02.497Z,3.40
2022-09-06T04:51:29.129Z,3.93
2022-09-06T04:53:55.756Z,3.47
2022-09-06T04:56:24.576Z,4.00
2022-09-06T04:58:53.196Z,4.00
2022-09-06T05:01:20.557Z,3.30
2022-09-06T05:03:47.765Z,3.57
2022-09-06T05:06:20.823Z,4.00
2022-09-06T05:08:47.917Z,4.10
2022-09-06T05:11:15.385Z,4.10
2022-09-06T05:13:42.266Z,3.83
2022-09-06T05:16:09.497Z,5.20
2022-09-06T05:18:36.379Z,3.60
2022-09-06T05:21:03.120Z,4.37
2022-09-06T05:23:29.754Z,3.60
2022-09-06T05:25:56.317Z,4.00
2022-09-06T05:28:23.421Z,5.00
2022-09-06T05:30:50.059Z,6.60
2022-09-06T05:33:21.903Z,5.47
2022-09-06T05:35:49.141Z,6.27
2022-09-06T05:38:16.262Z,6.00
2022-09-06T05:40:43.309Z,6.60
2022-09-06T05:43:09.878Z,5.50
2022-09-06T05:45:36.642Z,4.93
2022-09-06T05:48:03.707Z,4.30
2022-09-06T05:50:30.322Z,4.57
2022-09-06T05:52:56.905Z,4.53
2022-09-06T05:55:23.474Z,4.30
2022-09-06T05:57:50.034Z,4.97
2022-09-06T06:00:16.753Z,4.10
2022-09-06T06:02:43.358Z,4.53
2022-09-06T06:05:10.062Z,4.80
2022-09-06T06:07:36.651Z,4.37
2022-09-06T06:10:04.304Z,4.23
2022-09-06T06:12:30.880Z,4.40
2022-09-06T06:14:57.882Z,5.90
2022-09-06T06:17:24.615Z,6.83
2022-09-06T06:19:51.205Z,5.83
2022-09-06T06:22:17.781Z,6.80
2022-09-06T06:24:44.356Z,6.30
2022-09-06T06:27:10.935Z,6.13
2022-09-06T06:29:37.529Z,7.00
2022-09-06T06:32:04.228Z,6.00
2022-09-06T06:34:31.051Z,6.57
2022-09-06T06:36:58.061Z,6.23
2022-09-06T06:39:24.778Z,7.53
2022-09-06T06:41:52.761Z,7.10
2022-09-06T06:44:19.337Z,7.40
2022-09-06T06:46:45.916Z,7.60
2022-09-06T06:49:12.521Z,7.47
2022-09-06T06:51:39.742Z,7.30
2022-09-06T06:54:06.474Z,6.67
2022-09-06T06:56:39.084Z,6.90
2022-09-06T06:59:07.741Z,7.00
2022-09-06T07:01:36.023Z,7.70
2022-09-06T07:04:03.274Z,8.27
2022-09-06T07:09:18.603Z,7.23
2022-09-06T07:11:45.865Z,7.13
2022-09-06T07:14:13.024Z,7.40
2022-09-06T07:16:39.656Z,7.80
2022-09-06T07:19:07.122Z,7.00
2022-09-06T07:21:37.514Z,6.97
2022-09-06T07:24:08.511Z,7.27
2022-09-06T07:26:37.572Z,6.70
2022-09-06T07:29:05.655Z,6.97
2022-09-06T07:34:20.300Z,5.37
2022-09-06T07:36:46.872Z,5.00
2022-09-06T07:39:14.044Z,4.80
2022-09-06T07:41:41.071Z,4.40
2022-09-06T07:44:07.645Z,4.57
2022-09-06T07:46:34.564Z,4.20
2022-09-06T07:49:04.143Z,4.63
2022-09-06T07:51:30.777Z,5.10
2022-09-06T07:54:13.253Z,4.63
2022-09-06T07:56:44.307Z,4.50
2022-09-06T07:59:10.939Z,4.47
2022-09-06T08:01:39.305Z,4.37
2022-09-06T08:04:15.475Z,4.47
2022-09-06T08:09:34.963Z,3.87
2022-09-06T08:12:06.580Z,3.90
2022-09-06T08:14:34.306Z,4.57
2022-09-06T08:17:01.609Z,4.20
2022-09-06T08:19:28.236Z,4.70
2022-09-06T08:21:55.633Z,3.63
2022-09-06T08:24:22.433Z,4.40
2022-09-06T08:26:49.002Z,3.67
2022-09-06T08:29:15.551Z,4.17
2022-09-06T08:31:44.091Z,3.83
2022-09-06T08:34:12.586Z,3.70
2022-09-06T08:36:39.269Z,3.83
2022-09-06T08:39:08.930Z,3.93
2022-09-06T08:42:07.209Z,3.60
2022-09-06T08:44:56.045Z,4.20
2022-09-06T08:47:23.885Z,3.33
2022-09-06T08:49:55.193Z,4.87
2022-09-06T08:53:13.607Z,3.80
2022-09-06T08:55:38.974Z,3.47
2022-09-06T08:58:42.917Z,3.20
2022-09-06T09:01:17.128Z,3.50
2022-09-06T09:03:44.650Z,3.30
2022-09-06T09:06:11.582Z,3.10
2022-09-06T09:08:47.952Z,3.10
2022-09-06T09:11:20.108Z,3.07
2022-09-06T09:14:03.910Z,3.10
2022-09-06T09:16:30.747Z,3.10
2022-09-06T09:19:00.744Z,2.70
2022-09-06T09:21:30.878Z,2.97
2022-09-06T09:24:03.014Z,2.77
2022-09-06T09:26:59.575Z,2.50
2022-09-06T09:29:29.433Z,2.27
2022-09-06T09:31:58.006Z,2.40
2022-09-06T09:34:35.477Z,2.50
2022-09-06T09:40:15.119Z,2.27
2022-09-06T09:42:42.280Z,2.70
2022-09-06T09:45:20.804Z,2.23
2022-09-06T09:47:47.549Z,1.73
2022-09-06T09:50:27.824Z,1.70
2022-09-06T09:52:55.168Z,2.27
2022-09-06T09:55:26.269Z,1.50
2022-09-06T09:57:54.204Z,1.90
2022-09-06T10:00:43.066Z,1.40
2022-09-06T10:03:14.919Z,1.60
2022-09-06T10:05:42.248Z,1.77
2022-09-06T10:08:12.908Z,1.80
2022-09-06T10:10:47.613Z,1.50
2022-09-06T10:13:24.255Z,1.50
2022-09-06T10:15:52.223Z,1.50
2022-09-06T10:18:33.950Z,1.83
2022-09-06T10:21:12.948Z,1.67
2022-09-06T10:26:52.875Z,1.50
2022-09-06T10:29:50.035Z,1.77
2022-09-06T10:32:30.802Z,1.47
2022-09-06T10:35:25.162Z,1.70
2022-09-06T10:38:13.241Z,1.33
2022-09-06T10:41:01.177Z,1.40
2022-09-06T10:43:41.330Z,1.90
2022-09-06T10:46:14.751Z,1.20
2022-09-06T10:48:45.452Z,1.57
2022-09-06T10:51:27.555Z,4.50
2022-09-06T10:54:01.704Z,35.70
2022-09-06T10:56:37.675Z,51.77
2022-09-06T11:02:29.984Z,30.13
2022-09-06T11:10:48.806Z,4.70
2022-09-06T11:13:16.990Z,4.33
2022-09-06T11:15:59.059Z,4.00
2022-09-06T11:18:36.568Z,3.43
2022-09-06T11:21:19.490Z,3.40
2022-09-06T11:24:28.007Z,2.50
2022-09-06T11:27:22.879Z,2.73
2022-09-06T11:29:56.362Z,2.23
2022-09-06T11:32:39.785Z,1.70
2022-09-06T11:35:10.876Z,2.20
2022-09-06T11:37:42.968Z,2.00
2022-09-06T11:40:32.642Z,1.50
2022-09-06T11:43:00.878Z,1.60
2022-09-06T11:45:46.305Z,1.23
2022-09-06T11:48:33.824Z,1.63
2022-09-06T11:51:10.585Z,1.40
2022-09-06T11:53:49.407Z,1.43
2022-09-06T11:56:31.106Z,1.17
2022-09-06T11:59:07.895Z,1.40
2022-09-06T12:01:36.640Z,1.10
2022-09-06T12:04:06.772Z,1.50
2022-09-06T12:06:39.577Z,1.20
2022-09-06T12:09:36.338Z,1.13
2022-09-06T12:12:04.309Z,1.57
2022-09-06T12:14:31.172Z,2.03
2022-09-06T12:16:57.847Z,1.20
2022-09-06T12:19:46.720Z,1.50
2022-09-06T12:22:32.617Z,1.33
2022-09-06T12:25:07.797Z,1.20
2022-09-06T12:27:39.877Z,1.37
2022-09-06T12:30:12.450Z,1.20
2022-09-06T12:32:51.825Z,1.43
2022-09-06T12:38:16.985Z,1.80
2022-09-06T12:40:51.469Z,1.27
2022-09-06T12:43:19.802Z,1.60
2022-09-06T12:45:48.898Z,1.40
2022-09-06T12:48:30.810Z,1.80
2022-09-06T12:51:04.586Z,1.60
2022-09-06T12:53:34.101Z,1.97
2022-09-06T12:56:08.086Z,1.73
2022-09-06T12:58:36.282Z,1.80
2022-09-06T13:01:33.158Z,1.40
2022-09-06T13:04:07.939Z,1.60
2022-09-06T13:06:40.145Z,2.03
2022-09-06T13:09:11.137Z,1.90
2022-09-06T13:11:43.801Z,1.77
2022-09-06T13:14:23.449Z,2.30
2022-09-06T13:16:52.047Z,1.83
2022-09-06T13:19:31.732Z,1.83
2022-09-06T13:21:59.087Z,2.13
2022-09-06T13:24:45.847Z,2.47
2022-09-06T13:27:24.617Z,2.20
2022-09-06T13:29:56.198Z,2.00
2022-09-06T13:32:22.944Z,2.03
2022-09-06T13:34:56.684Z,1.70
2022-09-06T13:37:29.040Z,1.67
2022-09-06T13:39:57.300Z,1.60
2022-09-06T13:42:33.143Z,1.90
2022-09-06T13:45:19.980Z,2.33
2022-09-06T13:47:46.520Z,1.90
2022-09-06T13:50:13.220Z,2.03
2022-09-06T13:52:39.809Z,2.00
2022-09-06T13:55:07.323Z,2.00
2022-09-06T13:57:33.973Z,2.00
2022-09-06T14:00:00.558Z,1.70
2022-09-06T14:02:27.445Z,1.97
2022-09-06T14:04:54.035Z,2.00
2022-09-06T14:07:20.597Z,2.10
2022-09-06T14:09:49.997Z,2.43
2022-09-06T14:12:16.675Z,1.90
2022-09-06T14:14:44.614Z,2.53
2022-09-06T14:17:11.176Z,2.37
2022-09-06T14:19:37.729Z,2.20
2022-09-06T14:22:06.753Z,1.90
2022-09-06T14:24:33.320Z,2.20
2022-09-06T14:26:59.887Z,1.87
2022-09-06T14:29:26.468Z,2.27
2022-09-06T14:31:53.061Z,2.10
2022-09-06T14:34:19.669Z,2.60
2022-09-06T14:36:46.302Z,2.27
2022-09-06T14:39:12.930Z,2.70
2022-09-06T14:41:39.494Z,2.40
2022-09-06T14:44:06.073Z,2.27
2022-09-06T14:46:32.677Z,2.00
2022-09-06T14:49:07.116Z,1.97
2022-09-06T14:51:34.585Z,2.10
2022-09-06T14:54:10.200Z,2.10
2022-09-06T14:56:38.538Z,1.93
2022-09-06T14:59:05.189Z,2.30
2022-09-06T15:01:38.038Z,2.10
2022-09-06T15:04:07.634Z,1.87
2022-09-06T15:06:36.768Z,1.50
2022-09-06T15:09:05.277Z,1.83
2022-09-06T15:11:37.067Z,1.80
2022-09-06T15:14:07.676Z,1.80
2022-09-06T15:16:35.802Z,2.10
2022-09-06T15:19:02.713Z,1.67
2022-09-06T15:21:32.502Z,2.00
2022-09-06T15:24:00.245Z,1.60
2022-09-06T15:26:26.802Z,1.40
2022-09-06T15:28:53.629Z,1.70
2022-09-06T15:31:20.932Z,1.50
2022-09-06T15:33:48.759Z,1.87
2022-09-06T15:36:16.179Z,1.80
2022-09-06T15:38:47.267Z,1.60
2022-09-06T15:41:15.228Z,1.73
2022-09-06T15:43:47.104Z,1.70
2022-09-06T15:46:23.014Z,1.40
2022-09-06T15:48:52.240Z,1.67
2022-09-06T15:51:20.173Z,1.70
2022-09-06T15:53:47.241Z,1.83
2022-09-06T15:56:15.707Z,1.57
2022-09-06T15:58:42.809Z,1.50
2022-09-06T16:01:15.294Z,1.50
2022-09-06T16:03:47.179Z,1.40
2022-09-06T16:08:53.562Z,1.50
2022-09-06T16:11:20.223Z,1.50
2022-09-06T16:13:46.887Z,1.53
2022-09-06T16:16:15.954Z,1.37
2022-09-06T16:18:44.883Z,1.53
2022-09-06T16:21:23.779Z,1.50
2022-09-06T16:23:54.044Z,1.40
2022-09-06T16:26:23.784Z,1.57
2022-09-06T16:28:52.014Z,1.73
2022-09-06T16:31:19.660Z,1.20
2022-09-06T16:33:48.610Z,1.20
2022-09-06T16:36:15.836Z,1.60
2022-09-06T16:38:42.459Z,1.70
2022-09-06T16:41:45.635Z,1.50
2022-09-06T16:44:16.307Z,1.20
2022-09-06T16:46:48.046Z,1.20
2022-09-06T16:49:16.827Z,1.20
2022-09-06T16:51:43.977Z,1.40
2022-09-06T16:54:15.340Z,1.40
2022-09-06T16:56:42.689Z,1.30
2022-09-06T16:59:10.873Z,1.40
2022-09-06T17:01:41.396Z,1.30
2022-09-06T17:04:08.831Z,1.40
2022-09-06T17:06:41.988Z,1.50
2022-09-06T17:09:08.651Z,1.53
2022-09-06T17:11:37.099Z,1.17
2022-09-06T17:14:03.931Z,1.20
2022-09-06T17:16:49.260Z,1.43
2022-09-06T17:19:16.191Z,1.50
2022-09-06T17:21:43.545Z,1.17
2022-09-06T17:24:10.537Z,1.10
2022-09-06T17:26:39.064Z,1.80
2022-09-06T17:29:07.072Z,1.70
2022-09-06T17:31:33.994Z,1.23
2022-09-06T17:34:00.691Z,1.60
2022-09-06T17:36:30.307Z,1.20
2022-09-06T17:39:23.329Z,1.70
2022-09-06T17:41:52.127Z,1.57
2022-09-06T17:44:21.087Z,1.40
2022-09-06T17:47:08.944Z,2.10
2022-09-06T17:49:35.320Z,1.87
2022-09-06T17:52:02.006Z,1.60
2022-09-06T17:54:31.567Z,1.90
2022-09-06T17:56:58.538Z,1.67
2022-09-06T17:59:25.349Z,1.43
2022-09-06T18:01:52.410Z,1.37
2022-09-06T18:04:19.375Z,1.60
2022-09-06T18:06:47.393Z,1.80
2022-09-06T18:09:17.130Z,1.57
2022-09-06T18:11:47.319Z,1.23
2022-09-06T18:14:20.609Z,1.67
2022-09-06T18:16:48.973Z,1.40
2022-09-06T18:19:17.456Z,1.43
2022-09-06T18:21:44.543Z,1.53
2022-09-06T18:24:13.594Z,1.90
2022-09-06T18:26:41.459Z,1.93
2022-09-06T18:29:11.851Z,1.57
2022-09-06T18:31:39.547Z,2.33
2022-09-06T18:34:07.459Z,1.80
2022-09-06T18:36:34.486Z,2.43
2022-09-06T18:39:04.984Z,2.17
2022-09-06T18:41:51.681Z,2.37
2022-09-06T18:44:18.589Z,2.60
2022-09-06T18:46:45.198Z,2.10
2022-09-06T18:49:15.355Z,2.03
2022-09-06T18:51:42.645Z,2.23
2022-09-06T18:54:10.725Z,2.47
2022-09-06T18:56:37.320Z,4.90
2022-09-06T18:59:05.517Z,4.53
2022-09-06T19:01:33.237Z,3.47
2022-09-06T19:04:01.184Z,2.83
2022-09-06T19:06:28.927Z,2.30
2022-09-06T19:08:59.193Z,2.10
2022-09-06T19:11:26.231Z,2.60
2022-09-06T19:13:55.104Z,2.10
2022-09-06T19:16:23.191Z,1.90
2022-09-06T19:18:50.796Z,1.93
2022-09-06T19:21:22.058Z,1.90
2022-09-06T19:23:58.357Z,1.87
2022-09-06T19:26:27.615Z,1.80
2022-09-06T19:28:56.696Z,2.00
2022-09-06T19:31:24.965Z,2.27
2022-09-06T19:33:51.826Z,2.40
2022-09-06T19:36:19.930Z,2.30
2022-09-06T19:39:02.574Z,2.07
2022-09-06T19:41:31.283Z,2.17
2022-09-06T19:43:58.821Z,3.20
2022-09-06T19:46:26.602Z,3.00
2022-09-06T19:48:55.917Z,3.00
2022-09-06T19:51:23.079Z,2.83
2022-09-06T19:53:52.982Z,2.43
2022-09-06T19:56:21.351Z,2.60
2022-09-06T19:58:53.618Z,2.70
2022-09-06T20:01:20.332Z,2.77
2022-09-06T20:03:47.161Z,2.17
2022-09-06T20:06:14.225Z,2.20
2022-09-06T20:08:41.280Z,2.03
2022-09-06T20:11:09.552Z,2.10
2022-09-06T20:13:37.395Z,2.10
2022-09-06T20:16:05.151Z,2.27
2022-09-06T20:18:31.797Z,2.63
2022-09-06T20:21:01.937Z,1.83
2022-09-06T20:23:29.392Z,2.43
2022-09-06T20:25:59.883Z,2.40
2022-09-06T20:28:27.360Z,2.17
2022-09-06T20:30:54.853Z,2.30
2022-09-06T20:33:21.903Z,2.30
2022-09-06T20:35:58.902Z,2.27
2022-09-06T20:38:25.995Z,2.63
2022-09-06T20:41:13.340Z,2.60
2022-09-06T20:43:40.961Z,2.20
2022-09-06T20:46:14.569Z,2.17
2022-09-06T20:48:44.773Z,2.10
2022-09-06T20:51:15.761Z,2.00
2022-09-06T20:53:42.559Z,2.20
2022-09-06T20:56:15.037Z,2.30
2022-09-06T20:58:42.439Z,2.20
2022-09-06T21:01:11.551Z,2.33
2022-09-06T21:03:40.408Z,2.10
2022-09-06T21:06:08.648Z,2.50
2022-09-06T21:08:40.556Z,2.23
2022-09-06T21:11:09.685Z,2.20
2022-09-06T21:13:36.929Z,2.20
2022-09-06T21:16:04.671Z,2.83
2022-09-06T21:18:32.029Z,2.20
2022-09-06T21:21:01.674Z,2.07
2022-09-06T21:23:30.420Z,2.30
2022-09-06T21:25:58.605Z,2.43
2022-09-06T21:28:28.346Z,2.13
2022-09-06T21:31:05.861Z,2.10
2022-09-06T21:33:33.440Z,2.50
2022-09-06T21:36:06.862Z,1.90
2022-09-06T21:38:34.592Z,2.17
2022-09-06T21:41:01.997Z,2.43
2022-09-06T21:43:28.647Z,2.50
2022-09-06T21:45:55.517Z,2.23
2022-09-06T21:48:22.086Z,2.10
2022-09-06T21:50:49.323Z,2.17
2022-09-06T21:53:16.733Z,2.20
2022-09-06T21:55:43.897Z,2.27
2022-09-06T21:58:12.078Z,1.90
2022-09-06T22:00:39.444Z,2.23
2022-09-06T22:03:07.266Z,2.20
2022-09-06T22:05:34.218Z,2.00
2022-09-06T22:08:00.787Z,2.40
2022-09-06T22:10:27.952Z,2.20
2022-09-06T22:12:54.567Z,1.90
2022-09-06T22:15:22.056Z,2.30
2022-09-06T22:17:49.058Z,2.27
2022-09-06T22:20:15.635Z,2.00
2022-09-06T22:22:45.758Z,2.20
2022-09-06T22:25:13.624Z,2.40
2022-09-06T22:27:41.109Z,2.33
2022-09-06T22:30:08.505Z,2.40
2022-09-06T22:32:35.114Z,1.87
2022-09-06T22:35:02.177Z,2.37
2022-09-06T22:37:28.761Z,2.17
2022-09-06T22:39:55.364Z,1.73
2022-09-06T22:42:21.975Z,2.13
2022-09-06T22:44:48.589Z,2.60
2022-09-06T22:47:15.223Z,2.30
2022-09-06T22:49:41.785Z,1.77
2022-09-06T22:52:08.353Z,1.60
2022-09-06T22:54:35.981Z,1.67
2022-09-06T22:57:02.574Z,2.20
2022-09-06T22:59:29.612Z,2.10
2022-09-06T23:01:56.177Z,2.10
2022-09-06T23:04:22.777Z,1.70
2022-09-06T23:06:49.389Z,2.37
2022-09-06T23:09:16.028Z,2.27
2022-09-06T23:11:42.632Z,2.13
2022-09-06T23:14:09.640Z,2.27
2022-09-06T23:16:39.265Z,2.53
2022-09-06T23:19:06.536Z,2.20
2022-09-06T23:21:33.400Z,1.90
2022-09-06T23:23:59.989Z,1.93
2022-09-06T23:26:31.684Z,2.20
2022-09-06T23:28:58.642Z,2.20
2022-09-06T23:31:31.370Z,2.17
2022-09-06T23:34:00.309Z,2.10
2022-09-06T23:36:27.543Z,2.30
2022-09-06T23:38:55.773Z,2.03
2022-09-06T23:41:22.847Z,1.83
2022-09-06T23:43:49.893Z,2.17
2022-09-06T23:46:16.619Z,1.93
2022-09-06T23:48:43.421Z,2.30
2022-09-06T23:51:10.882Z,2.57
2022-09-06T23:53:38.201Z,2.30
2022-09-06T23:56:05.134Z,2.43
2022-09-06T23:58:32.183Z,2.30
